Pagina principale
METAR-TAF:

METAR-TAF

Aeroporti :

Aeroporto di Lugano-Agno

Lugano, Svizzera

latitudine: 46-00N, longitudine: 008-58E, altezza: 273 m

Osservazione

Il bollettino è stato emesso 37 minuti fa, alle 14:20 UTC
Vento 4 kt da nord-est, variando fra nord e est
Temperature 22°C
Umidità 31%
Pressione 999 hPa
Visibilità 10 km o più
Poco nuvoloso ad un'altezza di 8000 ft

METAR: LSZA 271420Z 04004KT 360V100 9999 FEW080 22/04 Q0999

Ora: 16:57 (14:57 UTC)

Previsione

Il bollettino è stato emesso 32 minuti fa, alle 14:25 UTC
Previsione valida dal 27 alle 15 UTC al 27 alle 24 UTC
Vento 4 kt da nord/nord-est
Visibilità 10 km o più
Poco nuvoloso ad un'altezza di 8000 ft
Probabilità 30% :
Temporaneamente
dal 27 alle 16 UTC al 27 alle 19 UTC
Vento 15 kt da nord con raffiche fino a 25 kt

TAF: LSZA 271425Z 2715/2724 03004KT 9999 FEW080 PROB30 TEMPO 2716/2719 01015G25KT

Osservazioni e previsioni meteorologiche di più di 4000 aeroporti (messaggi METAR e TAF).

Le stazioni disponibili sono rappresentate dai dischi gialli e rossi sulla carta.

Puntare il mouse per vedere il nome della stazione.

Clicca sopra per visualizzare le osservazioni e previsioni meteorologiche.

Per cambiare la mappa : fare clic sui pulsanti verdi con una croce nera per ingrandire, il pulsante verde con un trattino per diminuire, o sulla freccia verde per le mappe adiacenti.


METAR-TAF: